sensor_id;sensor_type;location;lat;lon;timestamp;P1;durP1;ratioP1;P2;durP2;ratioP2
30147;SDS011;16960;49.404;8.248;2022-10-31T00:00:07;3.90;;;3.60;;
30147;SDS011;16960;49.404;8.248;2022-10-31T00:02:36;3.90;;;3.60;;
30147;SDS011;16960;49.404;8.248;2022-10-31T00:05:03;4.70;;;4.20;;
30147;SDS011;16960;49.404;8.248;2022-10-31T00:07:30;3.73;;;3.43;;
30147;SDS011;16960;49.404;8.248;2022-10-31T00:09:57;5.13;;;3.70;;
30147;SDS011;16960;49.404;8.248;2022-10-31T00:12:25;4.13;;;3.13;;
30147;SDS011;16960;49.404;8.248;2022-10-31T00:14:52;4.70;;;4.30;;
30147;SDS011;16960;49.404;8.248;2022-10-31T00:17:20;3.87;;;3.53;;
30147;SDS011;16960;49.404;8.248;2022-10-31T00:19:47;3.60;;;3.30;;
30147;SDS011;16960;49.404;8.248;2022-10-31T00:22:14;4.70;;;4.27;;
30147;SDS011;16960;49.404;8.248;2022-10-31T00:24:41;4.70;;;4.07;;
30147;SDS011;16960;49.404;8.248;2022-10-31T00:27:08;4.93;;;3.83;;
30147;SDS011;16960;49.404;8.248;2022-10-31T00:29:35;4.60;;;3.57;;
30147;SDS011;16960;49.404;8.248;2022-10-31T00:32:01;3.90;;;3.60;;
30147;SDS011;16960;49.404;8.248;2022-10-31T00:34:30;5.10;;;4.10;;
30147;SDS011;16960;49.404;8.248;2022-10-31T00:36:57;4.83;;;3.67;;
30147;SDS011;16960;49.404;8.248;2022-10-31T00:39:23;4.60;;;4.17;;
30147;SDS011;16960;49.404;8.248;2022-10-31T00:41:50;4.17;;;3.77;;
30147;SDS011;16960;49.404;8.248;2022-10-31T00:44:17;4.60;;;4.20;;
30147;SDS011;16960;49.404;8.248;2022-10-31T00:46:44;4.27;;;3.87;;
30147;SDS011;16960;49.404;8.248;2022-10-31T00:49:11;3.50;;;3.20;;
30147;SDS011;16960;49.404;8.248;2022-10-31T00:51:39;4.53;;;4.13;;
30147;SDS011;16960;49.404;8.248;2022-10-31T00:54:06;4.00;;;3.70;;
30147;SDS011;16960;49.404;8.248;2022-10-31T00:56:33;3.93;;;3.63;;
30147;SDS011;16960;49.404;8.248;2022-10-31T00:59:00;3.70;;;3.40;;
30147;SDS011;16960;49.404;8.248;2022-10-31T01:01:27;4.60;;;4.00;;
30147;SDS011;16960;49.404;8.248;2022-10-31T01:03:54;4.30;;;3.90;;
30147;SDS011;16960;49.404;8.248;2022-10-31T01:06:21;4.90;;;4.17;;
30147;SDS011;16960;49.404;8.248;2022-10-31T01:08:49;3.83;;;3.47;;
30147;SDS011;16960;49.404;8.248;2022-10-31T01:11:16;4.53;;;3.90;;
30147;SDS011;16960;49.404;8.248;2022-10-31T01:13:45;4.73;;;4.27;;
30147;SDS011;16960;49.404;8.248;2022-10-31T01:16:13;4.73;;;3.87;;
30147;SDS011;16960;49.404;8.248;2022-10-31T01:18:42;3.80;;;3.47;;
30147;SDS011;16960;49.404;8.248;2022-10-31T01:21:10;4.23;;;3.83;;
30147;SDS011;16960;49.404;8.248;2022-10-31T01:23:39;4.50;;;4.00;;
30147;SDS011;16960;49.404;8.248;2022-10-31T01:26:09;3.87;;;3.33;;
30147;SDS011;16960;49.404;8.248;2022-10-31T01:28:38;4.43;;;4.03;;
30147;SDS011;16960;49.404;8.248;2022-10-31T01:31:09;4.40;;;3.97;;
30147;SDS011;16960;49.404;8.248;2022-10-31T01:33:36;5.57;;;3.80;;
30147;SDS011;16960;49.404;8.248;2022-10-31T01:36:10;3.60;;;3.30;;
30147;SDS011;16960;49.404;8.248;2022-10-31T01:38:42;4.97;;;4.10;;
30147;SDS011;16960;49.404;8.248;2022-10-31T01:41:11;3.80;;;3.50;;
30147;SDS011;16960;49.404;8.248;2022-10-31T01:43:47;4.23;;;3.83;;
30147;SDS011;16960;49.404;8.248;2022-10-31T01:46:16;3.90;;;3.50;;
30147;SDS011;16960;49.404;8.248;2022-10-31T01:48:47;4.13;;;3.83;;
30147;SDS011;16960;49.404;8.248;2022-10-31T01:51:14;4.10;;;3.70;;
30147;SDS011;16960;49.404;8.248;2022-10-31T01:53:43;4.57;;;3.93;;
30147;SDS011;16960;49.404;8.248;2022-10-31T01:56:13;4.20;;;3.80;;
30147;SDS011;16960;49.404;8.248;2022-10-31T01:58:42;4.47;;;4.07;;
30147;SDS011;16960;49.404;8.248;2022-10-31T02:01:12;4.07;;;3.77;;
30147;SDS011;16960;49.404;8.248;2022-10-31T02:03:42;3.90;;;3.40;;
30147;SDS011;16960;49.404;8.248;2022-10-31T02:06:10;3.70;;;3.40;;
30147;SDS011;16960;49.404;8.248;2022-10-31T02:08:45;4.33;;;3.97;;
30147;SDS011;16960;49.404;8.248;2022-10-31T02:11:13;4.20;;;3.90;;
30147;SDS011;16960;49.404;8.248;2022-10-31T02:13:41;4.60;;;4.20;;
30147;SDS011;16960;49.404;8.248;2022-10-31T02:16:08;3.80;;;3.50;;
30147;SDS011;16960;49.404;8.248;2022-10-31T02:18:36;4.63;;;4.07;;
30147;SDS011;16960;49.404;8.248;2022-10-31T02:21:04;4.60;;;4.03;;
30147;SDS011;16960;49.404;8.248;2022-10-31T02:23:47;4.10;;;3.70;;
30147;SDS011;16960;49.404;8.248;2022-10-31T02:26:45;4.10;;;3.70;;
30147;SDS011;16960;49.404;8.248;2022-10-31T02:29:46;4.90;;;3.53;;
30147;SDS011;16960;49.404;8.248;2022-10-31T02:32:33;3.87;;;3.57;;
30147;SDS011;16960;49.404;8.248;2022-10-31T02:35:13;3.97;;;3.67;;
30147;SDS011;16960;49.404;8.248;2022-10-31T02:37:50;4.87;;;4.37;;
30147;SDS011;16960;49.404;8.248;2022-10-31T02:40:25;5.00;;;3.90;;
30147;SDS011;16960;49.404;8.248;2022-10-31T02:42:56;3.73;;;3.43;;
30147;SDS011;16960;49.404;8.248;2022-10-31T02:45:30;4.67;;;4.20;;
30147;SDS011;16960;49.404;8.248;2022-10-31T02:48:01;4.10;;;3.70;;
30147;SDS011;16960;49.404;8.248;2022-10-31T02:50:36;4.00;;;3.60;;
30147;SDS011;16960;49.404;8.248;2022-10-31T02:53:06;3.10;;;2.80;;
30147;SDS011;16960;49.404;8.248;2022-10-31T02:55:42;3.80;;;3.50;;
30147;SDS011;16960;49.404;8.248;2022-10-31T02:58:15;4.77;;;4.03;;
30147;SDS011;16960;49.404;8.248;2022-10-31T03:00:49;4.23;;;3.83;;
30147;SDS011;16960;49.404;8.248;2022-10-31T03:03:28;4.70;;;4.30;;
30147;SDS011;16960;49.404;8.248;2022-10-31T03:06:03;3.70;;;3.40;;
30147;SDS011;16960;49.404;8.248;2022-10-31T03:08:35;3.63;;;3.33;;
30147;SDS011;16960;49.404;8.248;2022-10-31T03:11:08;7.57;;;3.83;;
30147;SDS011;16960;49.404;8.248;2022-10-31T03:13:38;4.43;;;4.03;;
30147;SDS011;16960;49.404;8.248;2022-10-31T03:16:08;3.97;;;3.67;;
30147;SDS011;16960;49.404;8.248;2022-10-31T03:18:40;5.63;;;4.23;;
30147;SDS011;16960;49.404;8.248;2022-10-31T03:21:12;4.53;;;3.77;;
30147;SDS011;16960;49.404;8.248;2022-10-31T03:23:43;4.63;;;3.80;;
30147;SDS011;16960;49.404;8.248;2022-10-31T03:26:12;3.60;;;3.30;;
30147;SDS011;16960;49.404;8.248;2022-10-31T03:28:42;4.57;;;4.00;;
30147;SDS011;16960;49.404;8.248;2022-10-31T03:31:14;4.37;;;3.93;;
30147;SDS011;16960;49.404;8.248;2022-10-31T03:33:44;3.87;;;3.53;;
30147;SDS011;16960;49.404;8.248;2022-10-31T03:36:14;4.27;;;3.60;;
30147;SDS011;16960;49.404;8.248;2022-10-31T03:38:42;4.43;;;4.03;;
30147;SDS011;16960;49.404;8.248;2022-10-31T03:41:13;4.70;;;3.80;;
30147;SDS011;16960;49.404;8.248;2022-10-31T03:43:46;5.07;;;3.87;;
30147;SDS011;16960;49.404;8.248;2022-10-31T03:46:18;3.87;;;3.43;;
30147;SDS011;16960;49.404;8.248;2022-10-31T03:48:46;4.30;;;4.00;;
30147;SDS011;16960;49.404;8.248;2022-10-31T03:51:14;3.97;;;3.57;;
30147;SDS011;16960;49.404;8.248;2022-10-31T03:53:51;4.17;;;3.77;;
30147;SDS011;16960;49.404;8.248;2022-10-31T03:56:24;4.53;;;4.13;;
30147;SDS011;16960;49.404;8.248;2022-10-31T03:59:00;4.27;;;3.70;;
30147;SDS011;16960;49.404;8.248;2022-10-31T04:01:30;4.40;;;3.90;;
30147;SDS011;16960;49.404;8.248;2022-10-31T04:04:02;3.73;;;3.43;;
30147;SDS011;16960;49.404;8.248;2022-10-31T04:06:29;4.27;;;3.97;;
30147;SDS011;16960;49.404;8.248;2022-10-31T04:08:59;4.53;;;4.10;;
30147;SDS011;16960;49.404;8.248;2022-10-31T04:11:30;4.13;;;3.80;;
30147;SDS011;16960;49.404;8.248;2022-10-31T04:14:00;3.77;;;3.30;;
30147;SDS011;16960;49.404;8.248;2022-10-31T04:16:30;4.23;;;3.90;;
30147;SDS011;16960;49.404;8.248;2022-10-31T04:18:57;3.97;;;3.63;;
30147;SDS011;16960;49.404;8.248;2022-10-31T04:21:29;3.63;;;3.33;;
30147;SDS011;16960;49.404;8.248;2022-10-31T04:23:56;4.47;;;4.07;;
30147;SDS011;16960;49.404;8.248;2022-10-31T04:26:23;4.07;;;3.73;;
30147;SDS011;16960;49.404;8.248;2022-10-31T04:28:50;3.77;;;3.47;;
30147;SDS011;16960;49.404;8.248;2022-10-31T04:31:17;4.43;;;4.10;;
30147;SDS011;16960;49.404;8.248;2022-10-31T04:33:44;5.20;;;3.70;;
30147;SDS011;16960;49.404;8.248;2022-10-31T04:36:11;4.20;;;3.77;;
30147;SDS011;16960;49.404;8.248;2022-10-31T04:38:39;4.37;;;4.03;;
30147;SDS011;16960;49.404;8.248;2022-10-31T04:41:06;3.67;;;3.37;;
30147;SDS011;16960;49.404;8.248;2022-10-31T04:43:33;3.80;;;3.40;;
30147;SDS011;16960;49.404;8.248;2022-10-31T04:46:00;5.20;;;4.30;;
30147;SDS011;16960;49.404;8.248;2022-10-31T04:48:27;4.67;;;3.93;;
30147;SDS011;16960;49.404;8.248;2022-10-31T04:50:58;4.20;;;3.80;;
30147;SDS011;16960;49.404;8.248;2022-10-31T04:53:25;3.47;;;3.17;;
30147;SDS011;16960;49.404;8.248;2022-10-31T04:55:53;4.37;;;3.97;;
30147;SDS011;16960;49.404;8.248;2022-10-31T04:58:20;3.50;;;3.20;;
30147;SDS011;16960;49.404;8.248;2022-10-31T05:00:47;3.40;;;3.10;;
30147;SDS011;16960;49.404;8.248;2022-10-31T05:03:18;3.43;;;3.13;;
30147;SDS011;16960;49.404;8.248;2022-10-31T05:05:45;3.90;;;3.50;;
30147;SDS011;16960;49.404;8.248;2022-10-31T05:08:11;4.20;;;3.20;;
30147;SDS011;16960;49.404;8.248;2022-10-31T05:10:38;4.33;;;3.93;;
30147;SDS011;16960;49.404;8.248;2022-10-31T05:13:07;3.77;;;3.43;;
30147;SDS011;16960;49.404;8.248;2022-10-31T05:15:34;3.80;;;3.50;;
30147;SDS011;16960;49.404;8.248;2022-10-31T05:18:01;4.30;;;3.90;;
30147;SDS011;16960;49.404;8.248;2022-10-31T05:20:29;3.60;;;3.27;;
30147;SDS011;16960;49.404;8.248;2022-10-31T05:22:57;4.50;;;3.97;;
30147;SDS011;16960;49.404;8.248;2022-10-31T05:25:25;4.57;;;4.17;;
30147;SDS011;16960;49.404;8.248;2022-10-31T05:27:53;3.60;;;3.30;;
30147;SDS011;16960;49.404;8.248;2022-10-31T05:30:23;3.93;;;3.53;;
30147;SDS011;16960;49.404;8.248;2022-10-31T05:32:51;3.73;;;3.40;;
30147;SDS011;16960;49.404;8.248;2022-10-31T05:35:19;4.10;;;3.30;;
30147;SDS011;16960;49.404;8.248;2022-10-31T05:37:47;3.93;;;3.43;;
30147;SDS011;16960;49.404;8.248;2022-10-31T05:40:14;5.20;;;4.30;;
30147;SDS011;16960;49.404;8.248;2022-10-31T05:42:43;5.10;;;4.57;;
30147;SDS011;16960;49.404;8.248;2022-10-31T05:45:11;3.47;;;3.17;;
30147;SDS011;16960;49.404;8.248;2022-10-31T05:47:40;4.10;;;3.70;;
30147;SDS011;16960;49.404;8.248;2022-10-31T05:50:08;3.63;;;3.33;;
30147;SDS011;16960;49.404;8.248;2022-10-31T05:52:35;5.63;;;4.17;;
30147;SDS011;16960;49.404;8.248;2022-10-31T05:55:03;3.90;;;3.57;;
30147;SDS011;16960;49.404;8.248;2022-10-31T05:57:31;4.03;;;3.63;;
30147;SDS011;16960;49.404;8.248;2022-10-31T05:59:59;3.37;;;2.97;;
30147;SDS011;16960;49.404;8.248;2022-10-31T06:02:26;3.60;;;3.30;;
30147;SDS011;16960;49.404;8.248;2022-10-31T06:04:58;3.77;;;3.37;;
30147;SDS011;16960;49.404;8.248;2022-10-31T06:07:25;4.43;;;3.50;;
30147;SDS011;16960;49.404;8.248;2022-10-31T06:09:52;3.80;;;3.50;;
30147;SDS011;16960;49.404;8.248;2022-10-31T06:12:19;3.80;;;3.43;;
30147;SDS011;16960;49.404;8.248;2022-10-31T06:14:46;3.77;;;3.47;;
30147;SDS011;16960;49.404;8.248;2022-10-31T06:17:13;4.50;;;4.10;;
30147;SDS011;16960;49.404;8.248;2022-10-31T06:19:40;3.13;;;2.90;;
30147;SDS011;16960;49.404;8.248;2022-10-31T06:22:09;3.87;;;3.47;;
30147;SDS011;16960;49.404;8.248;2022-10-31T06:24:36;3.83;;;3.50;;
30147;SDS011;16960;49.404;8.248;2022-10-31T06:27:03;4.13;;;3.83;;
30147;SDS011;16960;49.404;8.248;2022-10-31T06:29:30;3.90;;;3.60;;
30147;SDS011;16960;49.404;8.248;2022-10-31T06:31:57;4.10;;;3.57;;
30147;SDS011;16960;49.404;8.248;2022-10-31T06:34:24;3.40;;;3.20;;
30147;SDS011;16960;49.404;8.248;2022-10-31T06:36:51;3.27;;;2.90;;
30147;SDS011;16960;49.404;8.248;2022-10-31T06:39:19;6.87;;;3.80;;
30147;SDS011;16960;49.404;8.248;2022-10-31T06:41:46;7.17;;;3.80;;
30147;SDS011;16960;49.404;8.248;2022-10-31T06:44:13;6.03;;;3.87;;
30147;SDS011;16960;49.404;8.248;2022-10-31T06:46:40;5.37;;;3.23;;
30147;SDS011;16960;49.404;8.248;2022-10-31T06:49:07;4.53;;;2.97;;
30147;SDS011;16960;49.404;8.248;2022-10-31T06:51:34;4.40;;;4.00;;
30147;SDS011;16960;49.404;8.248;2022-10-31T06:54:01;4.97;;;3.73;;
30147;SDS011;16960;49.404;8.248;2022-10-31T06:56:29;4.27;;;3.87;;
30147;SDS011;16960;49.404;8.248;2022-10-31T06:58:56;4.83;;;3.83;;
30147;SDS011;16960;49.404;8.248;2022-10-31T07:01:23;4.47;;;3.90;;
30147;SDS011;16960;49.404;8.248;2022-10-31T07:03:50;4.13;;;3.70;;
30147;SDS011;16960;49.404;8.248;2022-10-31T07:06:17;5.70;;;3.73;;
30147;SDS011;16960;49.404;8.248;2022-10-31T07:08:43;5.10;;;4.17;;
30147;SDS011;16960;49.404;8.248;2022-10-31T07:11:10;7.80;;;3.90;;
30147;SDS011;16960;49.404;8.248;2022-10-31T07:13:39;4.20;;;3.80;;
30147;SDS011;16960;49.404;8.248;2022-10-31T07:16:06;4.70;;;3.73;;
30147;SDS011;16960;49.404;8.248;2022-10-31T07:18:35;4.30;;;3.90;;
30147;SDS011;16960;49.404;8.248;2022-10-31T07:21:02;4.23;;;3.83;;
30147;SDS011;16960;49.404;8.248;2022-10-31T07:23:29;8.57;;;4.37;;
30147;SDS011;16960;49.404;8.248;2022-10-31T07:25:57;10.60;;;4.07;;
30147;SDS011;16960;49.404;8.248;2022-10-31T07:28:25;8.50;;;3.97;;
30147;SDS011;16960;49.404;8.248;2022-10-31T07:30:55;4.27;;;3.83;;
30147;SDS011;16960;49.404;8.248;2022-10-31T07:33:23;6.23;;;4.27;;
30147;SDS011;16960;49.404;8.248;2022-10-31T07:35:52;6.70;;;3.97;;
30147;SDS011;16960;49.404;8.248;2022-10-31T07:38:19;5.93;;;4.53;;
30147;SDS011;16960;49.404;8.248;2022-10-31T07:40:49;5.27;;;4.00;;
30147;SDS011;16960;49.404;8.248;2022-10-31T07:43:17;4.17;;;3.60;;
30147;SDS011;16960;49.404;8.248;2022-10-31T07:45:48;3.53;;;3.23;;
30147;SDS011;16960;49.404;8.248;2022-10-31T07:48:18;4.33;;;3.93;;
30147;SDS011;16960;49.404;8.248;2022-10-31T07:50:45;5.47;;;3.70;;
30147;SDS011;16960;49.404;8.248;2022-10-31T07:53:13;4.27;;;3.87;;
30147;SDS011;16960;49.404;8.248;2022-10-31T07:55:40;5.77;;;4.10;;
30147;SDS011;16960;49.404;8.248;2022-10-31T07:58:08;4.10;;;3.67;;
30147;SDS011;16960;49.404;8.248;2022-10-31T08:00:37;6.73;;;4.30;;
30147;SDS011;16960;49.404;8.248;2022-10-31T08:03:05;5.40;;;4.30;;
30147;SDS011;16960;49.404;8.248;2022-10-31T08:05:34;4.33;;;3.70;;
30147;SDS011;16960;49.404;8.248;2022-10-31T08:08:02;4.40;;;4.00;;
30147;SDS011;16960;49.404;8.248;2022-10-31T08:10:30;4.40;;;4.00;;
30147;SDS011;16960;49.404;8.248;2022-10-31T08:12:57;4.20;;;3.80;;
30147;SDS011;16960;49.404;8.248;2022-10-31T08:15:25;4.37;;;3.97;;
30147;SDS011;16960;49.404;8.248;2022-10-31T08:17:52;8.57;;;4.20;;
30147;SDS011;16960;49.404;8.248;2022-10-31T08:20:20;5.90;;;4.43;;
30147;SDS011;16960;49.404;8.248;2022-10-31T08:22:55;7.53;;;4.50;;
30147;SDS011;16960;49.404;8.248;2022-10-31T08:25:23;10.03;;;4.47;;
30147;SDS011;16960;49.404;8.248;2022-10-31T08:27:51;7.10;;;4.00;;
30147;SDS011;16960;49.404;8.248;2022-10-31T08:30:19;6.27;;;4.00;;
30147;SDS011;16960;49.404;8.248;2022-10-31T08:32:47;6.93;;;3.87;;
30147;SDS011;16960;49.404;8.248;2022-10-31T08:35:22;6.73;;;4.00;;
30147;SDS011;16960;49.404;8.248;2022-10-31T08:37:51;5.33;;;4.80;;
30147;SDS011;16960;49.404;8.248;2022-10-31T08:40:20;4.00;;;3.60;;
30147;SDS011;16960;49.404;8.248;2022-10-31T08:42:47;4.57;;;4.17;;
30147;SDS011;16960;49.404;8.248;2022-10-31T08:45:21;4.77;;;3.97;;
30147;SDS011;16960;49.404;8.248;2022-10-31T08:47:47;5.60;;;4.00;;
30147;SDS011;16960;49.404;8.248;2022-10-31T08:50:14;6.60;;;4.10;;
30147;SDS011;16960;49.404;8.248;2022-10-31T08:52:41;6.40;;;4.40;;
30147;SDS011;16960;49.404;8.248;2022-10-31T08:55:08;5.97;;;4.70;;
30147;SDS011;16960;49.404;8.248;2022-10-31T08:57:37;5.47;;;4.60;;
30147;SDS011;16960;49.404;8.248;2022-10-31T09:00:04;5.80;;;3.90;;
30147;SDS011;16960;49.404;8.248;2022-10-31T09:02:32;5.17;;;4.20;;
30147;SDS011;16960;49.404;8.248;2022-10-31T09:04:58;4.00;;;3.60;;
30147;SDS011;16960;49.404;8.248;2022-10-31T09:07:25;6.13;;;4.70;;
30147;SDS011;16960;49.404;8.248;2022-10-31T09:09:52;4.70;;;4.30;;
30147;SDS011;16960;49.404;8.248;2022-10-31T09:12:20;5.20;;;4.37;;
30147;SDS011;16960;49.404;8.248;2022-10-31T09:14:50;4.17;;;3.87;;
30147;SDS011;16960;49.404;8.248;2022-10-31T09:17:17;6.20;;;4.50;;
30147;SDS011;16960;49.404;8.248;2022-10-31T09:19:44;5.07;;;4.10;;
30147;SDS011;16960;49.404;8.248;2022-10-31T09:22:10;4.93;;;4.53;;
30147;SDS011;16960;49.404;8.248;2022-10-31T09:24:37;5.80;;;4.33;;
30147;SDS011;16960;49.404;8.248;2022-10-31T09:27:04;5.10;;;4.33;;
30147;SDS011;16960;49.404;8.248;2022-10-31T09:29:31;6.20;;;5.27;;
30147;SDS011;16960;49.404;8.248;2022-10-31T09:32:00;6.40;;;4.00;;
30147;SDS011;16960;49.404;8.248;2022-10-31T09:34:26;6.67;;;5.37;;
30147;SDS011;16960;49.404;8.248;2022-10-31T09:36:53;4.47;;;4.07;;
30147;SDS011;16960;49.404;8.248;2022-10-31T09:39:20;4.90;;;4.40;;
30147;SDS011;16960;49.404;8.248;2022-10-31T09:41:55;6.37;;;4.30;;
30147;SDS011;16960;49.404;8.248;2022-10-31T09:44:38;8.00;;;5.70;;
30147;SDS011;16960;49.404;8.248;2022-10-31T09:47:15;6.40;;;5.50;;
30147;SDS011;16960;49.404;8.248;2022-10-31T09:49:51;7.90;;;6.13;;
30147;SDS011;16960;49.404;8.248;2022-10-31T09:52:27;8.70;;;4.90;;
30147;SDS011;16960;49.404;8.248;2022-10-31T09:54:58;10.00;;;5.67;;
30147;SDS011;16960;49.404;8.248;2022-10-31T09:57:30;8.83;;;6.07;;
30147;SDS011;16960;49.404;8.248;2022-10-31T09:59:59;7.37;;;5.17;;
30147;SDS011;16960;49.404;8.248;2022-10-31T10:02:33;7.20;;;5.73;;
30147;SDS011;16960;49.404;8.248;2022-10-31T10:05:04;6.53;;;5.50;;
30147;SDS011;16960;49.404;8.248;2022-10-31T10:07:39;6.93;;;5.30;;
30147;SDS011;16960;49.404;8.248;2022-10-31T10:10:13;8.30;;;5.20;;
30147;SDS011;16960;49.404;8.248;2022-10-31T10:12:49;7.00;;;6.00;;
30147;SDS011;16960;49.404;8.248;2022-10-31T10:15:44;8.23;;;5.83;;
30147;SDS011;16960;49.404;8.248;2022-10-31T10:18:27;7.13;;;5.23;;
30147;SDS011;16960;49.404;8.248;2022-10-31T10:21:06;7.83;;;5.77;;
30147;SDS011;16960;49.404;8.248;2022-10-31T10:23:48;7.20;;;5.93;;
30147;SDS011;16960;49.404;8.248;2022-10-31T10:26:25;6.50;;;5.70;;
30147;SDS011;16960;49.404;8.248;2022-10-31T10:29:01;6.57;;;5.47;;
30147;SDS011;16960;49.404;8.248;2022-10-31T10:31:43;11.73;;;5.80;;
30147;SDS011;16960;49.404;8.248;2022-10-31T10:34:16;5.10;;;4.57;;
30147;SDS011;16960;49.404;8.248;2022-10-31T10:36:46;6.53;;;4.90;;
30147;SDS011;16960;49.404;8.248;2022-10-31T10:39:18;7.90;;;5.83;;
30147;SDS011;16960;49.404;8.248;2022-10-31T10:41:49;5.83;;;5.10;;
30147;SDS011;16960;49.404;8.248;2022-10-31T10:44:34;7.40;;;5.17;;
30147;SDS011;16960;49.404;8.248;2022-10-31T10:47:22;6.20;;;5.20;;
30147;SDS011;16960;49.404;8.248;2022-10-31T10:50:08;8.33;;;6.37;;
30147;SDS011;16960;49.404;8.248;2022-10-31T10:52:41;6.93;;;5.53;;
30147;SDS011;16960;49.404;8.248;2022-10-31T10:55:16;6.27;;;5.67;;
30147;SDS011;16960;49.404;8.248;2022-10-31T10:57:55;9.23;;;5.60;;
30147;SDS011;16960;49.404;8.248;2022-10-31T11:00:24;6.93;;;4.97;;
30147;SDS011;16960;49.404;8.248;2022-10-31T11:02:53;6.03;;;5.40;;
30147;SDS011;16960;49.404;8.248;2022-10-31T11:05:26;6.90;;;5.60;;
30147;SDS011;16960;49.404;8.248;2022-10-31T11:07:59;6.00;;;5.40;;
30147;SDS011;16960;49.404;8.248;2022-10-31T11:10:26;7.17;;;6.33;;
30147;SDS011;16960;49.404;8.248;2022-10-31T11:12:58;6.33;;;5.73;;
30147;SDS011;16960;49.404;8.248;2022-10-31T11:15:29;6.33;;;5.23;;
30147;SDS011;16960;49.404;8.248;2022-10-31T11:17:58;6.20;;;5.57;;
30147;SDS011;16960;49.404;8.248;2022-10-31T11:20:28;7.60;;;5.20;;
30147;SDS011;16960;49.404;8.248;2022-10-31T11:23:03;6.47;;;5.10;;
30147;SDS011;16960;49.404;8.248;2022-10-31T11:25:47;6.40;;;5.80;;
30147;SDS011;16960;49.404;8.248;2022-10-31T11:28:15;8.77;;;5.47;;
30147;SDS011;16960;49.404;8.248;2022-10-31T11:30:43;7.87;;;5.63;;
30147;SDS011;16960;49.404;8.248;2022-10-31T11:33:14;6.73;;;5.00;;
30147;SDS011;16960;49.404;8.248;2022-10-31T11:35:47;6.37;;;5.77;;
30147;SDS011;16960;49.404;8.248;2022-10-31T11:38:16;6.83;;;6.10;;
30147;SDS011;16960;49.404;8.248;2022-10-31T11:40:51;7.20;;;6.00;;
30147;SDS011;16960;49.404;8.248;2022-10-31T11:43:23;5.97;;;5.37;;
30147;SDS011;16960;49.404;8.248;2022-10-31T11:45:50;10.13;;;6.37;;
30147;SDS011;16960;49.404;8.248;2022-10-31T11:48:18;7.33;;;6.10;;
30147;SDS011;16960;49.404;8.248;2022-10-31T11:50:49;8.80;;;6.17;;
30147;SDS011;16960;49.404;8.248;2022-10-31T11:53:20;7.00;;;6.10;;
30147;SDS011;16960;49.404;8.248;2022-10-31T11:55:59;6.73;;;5.77;;
30147;SDS011;16960;49.404;8.248;2022-10-31T11:58:30;5.77;;;5.20;;
30147;SDS011;16960;49.404;8.248;2022-10-31T12:00:57;6.80;;;5.73;;
30147;SDS011;16960;49.404;8.248;2022-10-31T12:03:37;9.27;;;6.10;;
30147;SDS011;16960;49.404;8.248;2022-10-31T12:06:17;9.00;;;6.70;;
30147;SDS011;16960;49.404;8.248;2022-10-31T12:08:48;7.07;;;6.37;;
30147;SDS011;16960;49.404;8.248;2022-10-31T12:11:20;6.80;;;5.73;;
30147;SDS011;16960;49.404;8.248;2022-10-31T12:13:59;8.67;;;6.00;;
30147;SDS011;16960;49.404;8.248;2022-10-31T12:16:36;7.63;;;6.17;;
30147;SDS011;16960;49.404;8.248;2022-10-31T12:19:09;6.83;;;5.97;;
30147;SDS011;16960;49.404;8.248;2022-10-31T12:21:48;8.33;;;5.97;;
30147;SDS011;16960;49.404;8.248;2022-10-31T12:24:28;10.47;;;6.97;;
30147;SDS011;16960;49.404;8.248;2022-10-31T12:27:09;5.63;;;5.03;;
30147;SDS011;16960;49.404;8.248;2022-10-31T12:29:55;7.60;;;5.63;;
30147;SDS011;16960;49.404;8.248;2022-10-31T12:32:36;8.90;;;6.63;;
30147;SDS011;16960;49.404;8.248;2022-10-31T12:35:19;9.30;;;7.30;;
30147;SDS011;16960;49.404;8.248;2022-10-31T12:37:58;8.00;;;6.50;;
30147;SDS011;16960;49.404;8.248;2022-10-31T12:40:48;8.40;;;5.00;;
30147;SDS011;16960;49.404;8.248;2022-10-31T12:43:34;6.63;;;5.93;;
30147;SDS011;16960;49.404;8.248;2022-10-31T12:46:10;10.70;;;6.63;;
30147;SDS011;16960;49.404;8.248;2022-10-31T12:51:43;6.03;;;5.43;;
30147;SDS011;16960;49.404;8.248;2022-10-31T12:54:23;7.00;;;5.63;;
30147;SDS011;16960;49.404;8.248;2022-10-31T12:57:04;7.13;;;5.37;;
30147;SDS011;16960;49.404;8.248;2022-10-31T12:59:39;6.27;;;5.23;;
30147;SDS011;16960;49.404;8.248;2022-10-31T13:02:12;8.30;;;6.17;;
30147;SDS011;16960;49.404;8.248;2022-10-31T13:04:43;6.57;;;5.17;;
30147;SDS011;16960;49.404;8.248;2022-10-31T13:07:18;6.53;;;5.90;;
30147;SDS011;16960;49.404;8.248;2022-10-31T13:09:50;9.13;;;5.30;;
30147;SDS011;16960;49.404;8.248;2022-10-31T13:12:21;11.93;;;6.13;;
30147;SDS011;16960;49.404;8.248;2022-10-31T13:14:50;6.50;;;5.67;;
30147;SDS011;16960;49.404;8.248;2022-10-31T13:17:21;9.20;;;6.20;;
30147;SDS011;16960;49.404;8.248;2022-10-31T13:19:52;5.87;;;5.10;;
30147;SDS011;16960;49.404;8.248;2022-10-31T13:22:27;9.83;;;6.07;;
30147;SDS011;16960;49.404;8.248;2022-10-31T13:25:03;6.57;;;5.63;;
30147;SDS011;16960;49.404;8.248;2022-10-31T13:27:42;9.43;;;5.30;;
30147;SDS011;16960;49.404;8.248;2022-10-31T13:30:15;5.50;;;5.00;;
30147;SDS011;16960;49.404;8.248;2022-10-31T13:32:44;7.57;;;5.57;;
30147;SDS011;16960;49.404;8.248;2022-10-31T13:35:19;6.37;;;5.40;;
30147;SDS011;16960;49.404;8.248;2022-10-31T13:37:53;8.00;;;5.60;;
30147;SDS011;16960;49.404;8.248;2022-10-31T13:40:32;8.27;;;5.43;;
30147;SDS011;16960;49.404;8.248;2022-10-31T13:43:06;5.17;;;4.73;;
30147;SDS011;16960;49.404;8.248;2022-10-31T13:45:49;6.73;;;5.30;;
30147;SDS011;16960;49.404;8.248;2022-10-31T13:48:19;7.50;;;5.73;;
30147;SDS011;16960;49.404;8.248;2022-10-31T13:51:00;5.73;;;5.20;;
30147;SDS011;16960;49.404;8.248;2022-10-31T13:53:36;6.10;;;5.60;;
30147;SDS011;16960;49.404;8.248;2022-10-31T13:56:17;6.90;;;4.90;;
30147;SDS011;16960;49.404;8.248;2022-10-31T13:59:14;5.40;;;4.90;;
30147;SDS011;16960;49.404;8.248;2022-10-31T14:01:45;5.93;;;5.30;;
30147;SDS011;16960;49.404;8.248;2022-10-31T14:04:14;7.07;;;6.37;;
30147;SDS011;16960;49.404;8.248;2022-10-31T14:06:45;6.10;;;5.10;;
30147;SDS011;16960;49.404;8.248;2022-10-31T14:09:21;5.83;;;4.67;;
30147;SDS011;16960;49.404;8.248;2022-10-31T14:11:56;7.43;;;5.13;;
30147;SDS011;16960;49.404;8.248;2022-10-31T14:14:28;9.30;;;5.80;;
30147;SDS011;16960;49.404;8.248;2022-10-31T14:16:59;7.90;;;5.63;;
30147;SDS011;16960;49.404;8.248;2022-10-31T14:19:27;5.93;;;5.43;;
30147;SDS011;16960;49.404;8.248;2022-10-31T14:21:54;7.33;;;5.60;;
30147;SDS011;16960;49.404;8.248;2022-10-31T14:24:31;8.40;;;5.00;;
30147;SDS011;16960;49.404;8.248;2022-10-31T14:27:02;5.87;;;5.27;;
30147;SDS011;16960;49.404;8.248;2022-10-31T14:29:32;6.33;;;4.93;;
30147;SDS011;16960;49.404;8.248;2022-10-31T14:32:02;7.17;;;5.43;;
30147;SDS011;16960;49.404;8.248;2022-10-31T14:34:38;6.70;;;4.90;;
30147;SDS011;16960;49.404;8.248;2022-10-31T14:40:07;5.63;;;5.13;;
30147;SDS011;16960;49.404;8.248;2022-10-31T14:43:07;7.60;;;5.57;;
30147;SDS011;16960;49.404;8.248;2022-10-31T14:45:54;9.27;;;5.70;;
30147;SDS011;16960;49.404;8.248;2022-10-31T14:48:34;6.73;;;5.30;;
30147;SDS011;16960;49.404;8.248;2022-10-31T14:51:12;7.10;;;5.53;;
30147;SDS011;16960;49.404;8.248;2022-10-31T14:53:44;5.40;;;4.47;;
30147;SDS011;16960;49.404;8.248;2022-10-31T14:56:14;7.43;;;5.00;;
30147;SDS011;16960;49.404;8.248;2022-10-31T14:58:48;5.90;;;5.20;;
30147;SDS011;16960;49.404;8.248;2022-10-31T15:01:18;5.43;;;4.93;;
30147;SDS011;16960;49.404;8.248;2022-10-31T15:03:48;7.03;;;5.20;;
30147;SDS011;16960;49.404;8.248;2022-10-31T15:06:15;7.70;;;5.57;;
30147;SDS011;16960;49.404;8.248;2022-10-31T15:08:45;7.43;;;5.57;;
30147;SDS011;16960;49.404;8.248;2022-10-31T15:11:15;5.07;;;4.37;;
30147;SDS011;16960;49.404;8.248;2022-10-31T15:13:44;4.80;;;4.40;;
30147;SDS011;16960;49.404;8.248;2022-10-31T15:16:15;5.70;;;4.63;;